createdAt,value
2022-11-08T00:11:46.695Z,9.28
2022-11-08T00:41:50.907Z,8.97
2022-11-08T01:11:55.158Z,8.69
2022-11-08T01:41:59.283Z,8.41
2022-11-08T02:12:03.596Z,8.16
2022-11-08T02:42:07.801Z,7.96
2022-11-08T06:53:00.186Z,7.84
2022-11-08T07:23:04.445Z,8.29
2022-11-08T07:53:08.941Z,8.99
2022-11-08T08:23:13.068Z,9.98
2022-11-08T08:53:18.068Z,11.93
2022-11-08T09:23:22.282Z,14.30
2022-11-08T09:53:31.623Z,18.31
2022-11-08T10:23:40.629Z,14.35
2022-11-08T10:53:48.851Z,12.81
2022-11-08T11:23:55.608Z,12.54
2022-11-08T11:54:08.896Z,13.24
2022-11-08T12:24:28.772Z,13.10
2022-11-08T12:54:37.404Z,12.80
2022-11-08T13:24:44.878Z,12.62
2022-11-08T13:54:53.353Z,12.66
2022-11-08T14:25:02.254Z,13.40
2022-11-08T14:55:09.387Z,13.07
2022-11-08T15:25:26.548Z,13.12
2022-11-08T15:55:32.049Z,12.85
2022-11-08T16:25:38.227Z,12.58
2022-11-08T16:55:42.327Z,12.58
2022-11-08T17:25:46.468Z,12.81
2022-11-08T17:55:57.570Z,12.78
2022-11-08T18:26:01.727Z,12.95
2022-11-08T18:56:06.726Z,12.85
2022-11-08T19:26:13.196Z,13.23
2022-11-08T19:56:18.662Z,13.22
2022-11-08T20:26:27.736Z,13.34
2022-11-08T20:56:32.591Z,13.36
2022-11-08T21:26:37.055Z,13.18
2022-11-08T21:56:41.155Z,12.83
2022-11-08T22:26:45.602Z,12.39
2022-11-08T22:56:49.845Z,12.37
2022-11-08T23:27:12.105Z,12.43
